6799450 - Logan Creek at Pender

Latitude:
42.11403º N
Longitude:
96.70188º W
Type:
Stream
River Basin:
Elkhorn
Source:
NeDNR

Info! The graphs are now plotted with new date ranges.
Warning! If you see this please check date range (or) the data is not available.

 to 


—— Provisional Data Subject to Revision ——

Instantaneous Discharge

6799450 - Logan Creek at Pender
- Ice Possible      - Equipment Malfunction
- Seasonal      -Rating in Development
- Measured



Instantaneous Stage

6799450 - Logan Creek at Pender
- Ice Possible      - Equipment Malfunction
- Seasonal      -Rating in Development
- Measured



 to 


—— Provisional Data Subject to Revision ——

Daily Discharge

6799450 - Logan Creek at Pender
- Approved      - Provisional


Export
Date Time Discharge (cfs) Stage (feet) Shift (feet)
09/04/2019 12:30 300 1.22 1.67
08/14/2019 14:30 405 1.50 1.80
07/24/2019 13:00 518 2.20 1.50
06/19/2019 12:00 726 3.23 1.17
05/22/2019 16:30 560 3.09 0.76
03/12/2019 15:30 763 4.44 0.08
02/19/2019 11:30 289 3.33 -0.48
01/07/2019 12:00 536 3.43 0.34
12/19/2018 14:30 419 2.80 0.55
11/14/2018 11:35 368 2.65 0.51
10/01/2018 17:00 362 2.36 0.78
09/06/2018 10:50 722 3.51 0.88
08/29/2018 11:20 328 2.37 0.63
07/12/2018 17:00 726 4.03 0.37
06/26/2018 14:45 22,100 23.30 -0.93
06/19/2018 12:37 581 3.74 0.18
05/16/2018 13:40 470 3.55 -0.01
03/22/2018 14:03 559 3.76 0.02
02/28/2018 14:21 432 3.67 -0.36
02/07/2018 9:30 222 3.74 -1.40
01/16/2018 14:11 240 3.33 -0.90
11/15/2017 13:09 311 2.99 -0.22
10/12/2017 12:06 489 3.88 -0.35
09/20/2017 13:13 209 2.53 -0.25
08/28/2017 13:43 454 3.66 -0.27
07/27/2017 14:30 183 2.47 -0.32
06/28/2017 11:22 301 2.98 -0.26
05/18/2017 11:00 1,500 6.76 -0.41
04/20/2017 13:49 375 3.36 -0.30
03/27/2017 13:20 316 2.97 -0.17
02/27/2017 11:25 314 2.88 -0.10
02/07/2017 13:30 651 3.81 0.29
12/05/2016 11:42 300 2.87 -0.15
11/16/2016 10:02 283 2.70 -0.07
11/01/2016 14:30 262 2.79 -0.26
09/28/2016 10:40 307 2.70 0.05
06/29/2016 12:30 620 3.62 0.37
06/07/2016 12:20 531 3.83 -0.15
05/01/2016 17:41 2,350 8.65 -0.60
04/04/2016 15:15 633 4.00 0.04
02/17/2016 16:30 373 3.21 -0.16
01/27/2016 14:30 285 2.83 -0.19
12/14/2015 15:30 629 4.42 -0.40
11/24/2015 16:00 306 2.90 -0.16
10/27/2015 16:30 237 2.58 -0.17
10/08/2015 15:30 303 2.78 -0.05
09/09/2015 15:30 173 2.31 -0.22
07/31/2015 17:00 248 2.60 -0.13
06/26/2015 17:00 397 3.28 -0.12
05/29/2015 15:00 243 2.74 -0.30
04/27/2015 15:45 219 2.62 -0.29
03/26/2015 15:30 225 2.62 -0.26
01/30/2015 16:15 240 2.56 -0.13
12/16/2014 15:00 246 2.64 -0.18
11/10/2014 11:30 190 2.38 -0.20
09/16/2014 14:00 266 2.55 0.00
09/03/2014 14:30 419 3.26 -0.01
07/24/2014 17:00 343 2.82 0.10
06/26/2014 14:30 552 3.77 -0.02
06/15/2014 20:00 7,150 16.40 -1.64
05/28/2014 17:30 280 3.21 -0.12
05/02/2014 17:00 118 2.37 -0.12
03/17/2014 15:45 106 2.32 -0.15
03/04/2014 11:30 88.2 2.92 -0.88
01/28/2014 10:45 75.4 3.00 -1.06
11/13/2013 11:50 104 2.28 -0.13
10/09/2013 13:10 71.0 2.04 -0.14
09/19/2013 13:50 60.2 1.90 -0.09
08/26/2013 16:45 95.6 2.13 -0.04
07/23/2013 11:30 74.1 1.98 -0.05
06/11/2013 12:00 203 2.64 0.10
05/14/2013 11:10 156 2.48 0.00
03/13/2013 16:15 101 2.24 -0.11
02/12/2013 15:00 104 2.52 -0.37
12/18/2012 15:00 80.5 2.10 -0.12
11/20/2012 10:40 68.0 2.00 -0.13
10/29/2012 15:30 65.4 1.98 -0.13
09/18/2012 11:15 37.0 1.76 -0.19
07/30/2012 15:15 36.0 1.60 -0.04
07/09/2012 17:00 82.6 2.01 -0.01
06/13/2012 16:30 190 2.59 0.08
05/09/2012 12:15 212 2.67 0.11
03/28/2012 16:20 168 2.50 0.05
03/05/2012 12:00 201 2.67 0.06
01/30/2012 13:15 205 3.30 -0.55
12/21/2011 15:45 198 2.66 0.05
11/10/2011 15:15 190 2.58 0.09
10/27/2011 13:30 181 2.56 0.06
10/04/2011 14:15 172 2.50 0.07
09/08/2011 17:00 186 2.52 0.13
08/02/2011 15:00 224 2.61 0.23
07/05/2011 15:15 452 3.61 0.14
06/07/2011 15:15 601 3.86 0.36
05/16/2011 12:00 307 3.11 0.10
04/20/2011 14:15 846 4.88 0.03
03/11/2011 12:00 424 3.21 0.44
02/11/2011 12:45 173 3.68 -1.10
12/09/2010 13:30 217 2.70 0.10
12/03/2010 11:45 218 2.71 0.10
10/28/2010 17:30 232 2.68 0.20
09/20/2010 16:30 260 2.70 0.30
08/13/2010 15:00 445 3.30 0.42
07/13/2010 14:00 514 3.62 0.33
06/12/2010 13:54 14,400 17.93 2.05
05/28/2010 17:00 302 3.20 -0.02
05/04/2010 17:00 368 3.30 0.14
03/29/2010 17:00 638 4.12 0.21
02/10/2010 11:30 146 3.45 -1.03
12/31/2009 14:45 172 3.85 -1.28
12/02/2009 15:30 212 2.83 -0.05
10/30/2009 14:00 332 3.42 -0.11
09/23/2009 14:45 154 2.46 0.01
09/02/2009 15:15 150 2.40 0.05
08/03/2009 14:00 142 2.40 0.00
06/18/2009 13:30 591 4.24 -0.05
05/29/2009 17:00 208 2.77 -0.01
04/22/2009 12:15 270 2.94 0.11
03/18/2009 12:30 277 2.90 0.18
02/12/2009 15:30 568 3.87 0.25
01/08/2009 15:30 201 3.59 -0.86
11/17/2008 13:00 296 3.00 0.16
10/28/2008 16:15 310 3.15 0.07
09/09/2008 12:30 181 2.53 0.09
08/20/2008 15:15 132 2.37 -0.03
07/03/2008 17:15 340 3.18 0.16
06/04/2008 18:45 804 4.74 0.06
05/07/2008 17:00 468 3.48 0.32
04/18/2008 14:30 398 3.36 0.20
03/03/2008 15:45 862 4.92 0.03
02/01/2008 16:45 186 3.74 -1.09
01/04/2008 16:00 242 3.78 -0.86
11/30/2007 14:30 262 2.90 0.11
10/30/2007 12:00 464 3.62 0.17
09/05/2007 12:15 192 2.61 0.07
08/15/2007 16:30 175 2.56 0.03
07/23/2007 13:11 123 2.37 -0.09
07/18/2007 13:24 106 2.27 -0.10
06/20/2007 11:37 231 2.86 0.01
05/16/2007 12:44 316 3.12 0.13
04/12/2007 11:59 425 3.55 0.11
03/19/2007 14:28 235 2.92 -0.03
02/20/2007 11:35 123 3.60 -1.32
01/10/2007 14:06 147 2.67 -0.23
12/18/2006 16:00 86.5 2.38 -0.35
11/08/2006 11:59 98.9 2.33 -0.21
10/12/2006 13:45 95.7 2.34 -0.25
09/25/2006 12:45 123 2.44 -0.15
08/16/2006 13:13 59.6 2.02 -0.22
07/07/2006 13:37 101 2.28 -0.15
06/12/2006 14:54 119 2.41 -0.15
05/17/2006 12:08 156 2.61 -0.12
04/13/2006 11:02 190 2.72 -0.05
03/27/2006 13:30 171 2.70 -0.13
02/27/2006 11:00 129 2.53 -0.21
01/27/2006 10:20 121 2.55 -0.28
12/16/2005 15:00 89.3 2.89 -0.84
11/07/2005 13:45 97.7 2.31 -0.20
10/14/2005 17:37 103 2.27 -0.12
09/29/2005 12:50 96.4 2.27 -0.17
08/19/2005 19:30 92.5 2.19 -0.12
07/21/2005 12:20 126 2.41 -0.11
06/03/2005 12:40 233 3.06 -0.18
04/14/2005 14:10 142 2.56 -0.16
03/29/2005 9:00 114 2.44 -0.22
02/24/2005 16:40 134 2.48 -0.13
01/29/2005 16:00 112 3.27 -1.06
12/09/2004 14:00 130 2.50 -0.17
11/15/2004 13:15 112 2.42 -0.21
10/06/2004 10:45 104 3.00 -0.85
09/15/2004 13:00 238 2.27 0.63
Export



Download Rating Curve
  
0.11     0.00
0.12     0.01
0.13     0.01
0.14     0.01
0.15     0.01
0.16     0.02
0.17     0.02
0.18     0.02
0.19     0.03
0.20     0.04
0.21     0.04
0.22     0.05
0.23     0.06
0.24     0.07
0.25     0.08
0.26     0.09
0.27     0.11
0.28     0.12
0.29     0.14
0.30     0.16
0.31     0.18
0.32     0.20
0.33     0.22
0.34     0.25
0.35     0.28
0.36     0.31
0.37     0.34
0.38     0.37
0.39     0.41
0.40     0.45
0.41     0.49
0.42     0.54
0.43     0.59
0.44     0.64
0.45     0.70
0.46     0.75
0.47     0.82
0.48     0.88
0.49     0.95
0.50     1.02
0.51     1.10
0.52     1.18
0.53     1.27
0.54     1.36
0.55     1.45
0.56     1.55
0.57     1.66
0.58     1.76
0.59     1.88
0.60     2.00
0.61     2.12
0.62     2.25
0.63     2.39
0.64     2.53
0.65     2.68
0.66     2.83
0.67     3.00
0.68     3.16
0.69     3.34
0.70     3.52
0.71     3.71
0.72     3.90
0.73     4.10
0.74     4.31
0.75     4.53
0.76     4.76
0.77     4.99
0.78     5.23
0.79     5.48
0.80     5.74
0.81     6.01
0.82     6.29
0.83     6.55
0.84     6.81
0.85     7.08
0.86     7.35
0.87     7.63
0.88     7.92
0.89     8.21
0.90     8.51
0.91     8.82
0.92     9.14
0.93     9.47
0.94     9.80
0.95     10.14
0.96     10.49
0.97     10.85
0.98     11.21
0.99     11.59
1.00     11.97
1.01     12.36
1.02     12.76
1.03     13.17
1.04     13.59
1.05     14.02
1.06     14.45
1.07     14.90
1.08     15.36
1.09     15.82
1.10     16.29
Download Rating Curve